Time;durP1;ratioP1;P1;durP2;ratioP2;P2;SDS_P1;SDS_P2;PMS_P1;PMS_P2;Temp;Humidity;BMP_temperature;BMP_pressure;BME280_temperature;BME280_humidity;BME280_pressure;Samples;Min_cycle;Max_cycle;Signal;HPM_P1;HPM_P2
2022/02/26 00:00:18;;;;;;;;;;;13.60;66.90;;;;;;4981223;28;19996;-64
2022/02/26 00:02:46;;;;;;;;;;;13.60;67.00;;;;;;4981277;28;19917;-64
2022/02/26 00:05:12;;;;;;;;;;;13.60;67.00;;;;;;4981194;28;19902;-64
2022/02/26 00:07:38;;;;;;;;;;;13.60;67.70;;;;;;4981268;28;19914;-64
2022/02/26 00:10:04;;;;;;;;;;;13.60;67.10;;;;;;4981161;28;20135;-64
2022/02/26 00:12:29;;;;;;;;;;;13.60;67.10;;;;;;4980958;28;19902;-65
2022/02/26 00:14:55;;;;;;;;;;;13.60;67.10;;;;;;4981098;28;20202;-64
2022/02/26 00:17:21;;;;;;;;;;;13.60;67.00;;;;;;4981061;28;20459;-64
2022/02/26 00:19:46;;;;;;;;;;;13.60;66.90;;;;;;4980941;28;19941;-64
2022/02/26 00:22:12;;;;;;;;;;;13.60;67.00;;;;;;4980903;28;19970;-64
2022/02/26 00:24:37;;;;;;;;;;;13.60;67.10;;;;;;4980940;28;19916;-64
2022/02/26 00:27:03;;;;;;;;;;;13.60;67.10;;;;;;4980756;28;19914;-64
2022/02/26 00:29:29;;;;;;;;;;;13.60;67.10;;;;;;4979705;28;19910;-64
2022/02/26 00:31:54;;;;;;;;;;;13.60;67.00;;;;;;4980451;28;20098;-64
2022/02/26 00:34:20;;;;;;;;;;;13.60;67.10;;;;;;4980580;28;19952;-64
2022/02/26 00:36:46;;;;;;;;;;;13.60;67.10;;;;;;4979673;28;19917;-64
2022/02/26 00:39:11;;;;;;;;;;;13.50;67.00;;;;;;4980481;28;19910;-64
2022/02/26 00:41:37;;;;;;;;;;;13.50;67.10;;;;;;4980641;28;19902;-64
2022/02/26 00:44:02;;;;;;;;;;;13.60;67.10;;;;;;4980532;28;19902;-64
2022/02/26 00:46:28;;;;;;;;;;;13.60;67.20;;;;;;4980179;28;19921;-64
2022/02/26 00:51:38;;;;;;;;;;;13.50;67.20;;;;;;4980379;28;19909;-65
2022/02/26 00:54:04;;;;;;;;;;;13.50;67.20;;;;;;4980376;28;19910;-64
2022/02/26 00:56:29;;;;;;;;;;;13.50;67.20;;;;;;4980229;28;19909;-64
2022/02/26 00:58:56;;;;;;;;;;;13.50;67.10;;;;;;4980311;28;19909;-64
2022/02/26 01:01:22;;;;;;;;;;;13.50;67.10;;;;;;4980240;28;19910;-65
2022/02/26 01:03:48;;;;;;;;;;;13.50;67.10;;;;;;4980220;28;20150;-65
2022/02/26 01:06:13;;;;;;;;;;;13.50;67.10;;;;;;4980127;28;19982;-65
2022/02/26 01:08:39;;;;;;;;;;;13.60;67.10;;;;;;4980194;28;19910;-63
2022/02/26 01:11:05;;;;;;;;;;;13.50;67.10;;;;;;4980180;28;19902;-65
2022/02/26 01:13:30;;;;;;;;;;;13.50;67.10;;;;;;4980144;28;19919;-64
2022/02/26 01:15:56;;;;;;;;;;;13.50;67.20;;;;;;4980062;28;19917;-64
2022/02/26 01:18:21;;;;;;;;;;;13.50;67.10;;;;;;4980038;28;19917;-65
2022/02/26 01:20:47;;;;;;;;;;;13.50;67.10;;;;;;4979905;28;20191;-64
2022/02/26 01:23:12;;;;;;;;;;;13.50;67.10;;;;;;4979997;28;20396;-64
2022/02/26 01:25:38;;;;;;;;;;;13.50;67.10;;;;;;4979932;28;20020;-64
2022/02/26 01:28:04;;;;;;;;;;;13.50;67.00;;;;;;4979900;28;19910;-64
2022/02/26 01:30:29;;;;;;;;;;;13.50;67.00;;;;;;4979902;28;19972;-64
2022/02/26 01:32:55;;;;;;;;;;;13.50;67.10;;;;;;4979838;28;20396;-64
2022/02/26 01:35:22;;;;;;;;;;;13.50;67.10;;;;;;4979827;28;19914;-64
2022/02/26 01:37:47;;;;;;;;;;;13.50;67.10;;;;;;4979784;28;19910;-64
2022/02/26 01:40:13;;;;;;;;;;;13.50;67.20;;;;;;4979789;28;19956;-64
2022/02/26 01:42:39;;;;;;;;;;;13.50;67.10;;;;;;4978086;28;19974;-64
2022/02/26 01:45:15;;;;;;;;;;;13.50;66.90;;;;;;4979396;28;19902;-64
2022/02/26 01:47:41;;;;;;;;;;;13.40;67.10;;;;;;4979474;28;19929;-63
2022/02/26 01:50:08;;;;;;;;;;;13.50;67.00;;;;;;4979570;28;20304;-63
2022/02/26 01:52:33;;;;;;;;;;;13.60;66.60;;;;;;4979473;28;19917;-64
2022/02/26 01:54:59;;;;;;;;;;;13.60;66.40;;;;;;4979422;28;19902;-64
2022/02/26 01:57:25;;;;;;;;;;;13.50;66.60;;;;;;4979496;28;19929;-64
2022/02/26 01:59:51;;;;;;;;;;;13.50;66.60;;;;;;4979402;28;19910;-65
2022/02/26 02:02:16;;;;;;;;;;;13.60;66.60;;;;;;4978137;28;19981;-64
2022/02/26 02:04:42;;;;;;;;;;;13.70;66.30;;;;;;4979310;28;19909;-64
2022/02/26 02:07:07;;;;;;;;;;;13.70;66.10;;;;;;4979237;28;19906;-64
2022/02/26 02:09:33;;;;;;;;;;;13.70;66.10;;;;;;4979266;28;19910;-65
2022/02/26 02:11:59;;;;;;;;;;;13.60;66.40;;;;;;4979207;28;19910;-64
2022/02/26 02:14:24;;;;;;;;;;;13.60;66.40;;;;;;4979175;28;19937;-64
2022/02/26 02:16:50;;;;;;;;;;;13.70;66.10;;;;;;4979078;28;19988;-64
2022/02/26 02:19:16;;;;;;;;;;;13.70;66.00;;;;;;4979093;28;19941;-64
2022/02/26 02:21:41;;;;;;;;;;;13.60;66.10;;;;;;4979030;28;19910;-64
2022/02/26 02:24:07;;;;;;;;;;;13.70;66.10;;;;;;4978994;28;19910;-64
2022/02/26 02:26:36;;;;;;;;;;;13.70;66.10;;;;;;4978946;28;20176;-63
2022/02/26 02:29:02;;;;;;;;;;;13.60;66.20;;;;;;4979292;28;19998;-64
2022/02/26 02:31:28;;;;;;;;;;;13.70;66.00;;;;;;4978920;28;19909;-64
2022/02/26 02:33:54;;;;;;;;;;;13.70;65.90;;;;;;4978836;28;19977;-64
2022/02/26 02:36:19;;;;;;;;;;;13.70;65.70;;;;;;4978830;28;19902;-64
2022/02/26 02:38:46;;;;;;;;;;;13.70;65.80;;;;;;4978822;28;19921;-64
2022/02/26 02:41:11;;;;;;;;;;;13.70;65.70;;;;;;4978750;28;19913;-63
2022/02/26 02:43:38;;;;;;;;;;;13.70;65.70;;;;;;4978746;28;20306;-63
2022/02/26 02:46:04;;;;;;;;;;;13.70;65.60;;;;;;4978515;28;19922;-64
2022/02/26 02:48:29;;;;;;;;;;;13.70;65.60;;;;;;4978676;28;20202;-64
2022/02/26 02:50:55;;;;;;;;;;;13.70;65.50;;;;;;4978620;28;19910;-64
2022/02/26 02:53:21;;;;;;;;;;;13.70;65.60;;;;;;4977640;28;19910;-64
2022/02/26 02:55:47;;;;;;;;;;;13.60;65.70;;;;;;4978892;28;19981;-64
2022/02/26 02:58:13;;;;;;;;;;;13.70;65.70;;;;;;4978454;28;20064;-64
2022/02/26 03:00:38;;;;;;;;;;;13.70;65.50;;;;;;4978432;28;19914;-65
2022/02/26 03:03:06;;;;;;;;;;;13.70;65.60;;;;;;4978489;28;19909;-64
2022/02/26 03:05:31;;;;;;;;;;;13.70;65.60;;;;;;4978396;28;19917;-64
2022/02/26 03:07:57;;;;;;;;;;;13.70;65.60;;;;;;4978347;28;19933;-64
2022/02/26 03:10:22;;;;;;;;;;;13.70;65.70;;;;;;4978350;28;20362;-64
2022/02/26 03:12:52;;;;;;;;;;;13.70;65.50;;;;;;4977103;28;19914;-64
2022/02/26 03:15:18;;;;;;;;;;;13.70;65.50;;;;;;4978272;28;19906;-64
2022/02/26 03:17:44;;;;;;;;;;;13.70;65.60;;;;;;4978268;28;19961;-64
2022/02/26 03:20:09;;;;;;;;;;;13.70;65.50;;;;;;4978228;28;20095;-64
2022/02/26 03:22:35;;;;;;;;;;;13.70;65.40;;;;;;4978159;28;19902;-64
2022/02/26 03:25:01;;;;;;;;;;;13.70;65.60;;;;;;4978168;28;19910;-64
2022/02/26 03:27:27;;;;;;;;;;;13.70;65.60;;;;;;4978089;28;19914;-64
2022/02/26 03:29:52;;;;;;;;;;;13.70;65.50;;;;;;4978023;28;19902;-64
2022/02/26 03:32:18;;;;;;;;;;;13.70;65.60;;;;;;4977929;28;19910;-64
2022/02/26 03:34:44;;;;;;;;;;;13.60;65.60;;;;;;4978077;28;19910;-64
2022/02/26 03:37:09;;;;;;;;;;;13.60;65.60;;;;;;4977938;28;19910;-65
2022/02/26 03:39:35;;;;;;;;;;;13.60;65.70;;;;;;4977923;28;19910;-64
2022/02/26 03:42:02;;;;;;;;;;;13.60;65.60;;;;;;4977824;28;19972;-64
2022/02/26 03:44:27;;;;;;;;;;;13.60;66.40;;;;;;4977928;28;19981;-64
2022/02/26 03:46:53;;;;;;;;;;;13.60;65.80;;;;;;4977680;28;19948;-64
2022/02/26 03:49:19;;;;;;;;;;;13.60;65.50;;;;;;4977860;28;20023;-64
2022/02/26 03:51:44;;;;;;;;;;;13.60;65.60;;;;;;4977849;28;19902;-64
2022/02/26 03:54:10;;;;;;;;;;;13.60;65.60;;;;;;4977809;28;19941;-64
2022/02/26 03:56:35;;;;;;;;;;;13.60;65.70;;;;;;4977765;28;20140;-64
2022/02/26 03:59:01;;;;;;;;;;;13.60;65.60;;;;;;4977689;28;19918;-64
2022/02/26 04:01:27;;;;;;;;;;;13.60;65.70;;;;;;4977671;28;20097;-63
2022/02/26 04:03:52;;;;;;;;;;;13.50;65.80;;;;;;4977987;28;19909;-64
2022/02/26 04:06:18;;;;;;;;;;;13.50;65.90;;;;;;4981103;28;19937;-64
2022/02/26 04:08:43;;;;;;;;;;;13.50;65.90;;;;;;4980972;28;19914;-64
2022/02/26 04:11:09;;;;;;;;;;;13.50;65.90;;;;;;4980896;28;19902;-64
2022/02/26 04:13:35;;;;;;;;;;;13.60;65.90;;;;;;4980904;28;20186;-64
2022/02/26 04:16:01;;;;;;;;;;;13.50;65.80;;;;;;4980812;28;20447;-65
2022/02/26 04:18:27;;;;;;;;;;;13.50;65.90;;;;;;4979547;28;19902;-64
2022/02/26 04:20:53;;;;;;;;;;;13.50;65.90;;;;;;4980706;28;19936;-64
2022/02/26 04:23:18;;;;;;;;;;;13.50;66.00;;;;;;4980691;28;19910;-64
2022/02/26 04:25:44;;;;;;;;;;;13.50;65.90;;;;;;4980608;28;19902;-64
2022/02/26 04:28:09;;;;;;;;;;;13.50;65.90;;;;;;4980512;28;19906;-64
2022/02/26 04:30:37;;;;;;;;;;;13.50;65.90;;;;;;4980582;28;19917;-64
2022/02/26 04:33:04;;;;;;;;;;;13.50;65.90;;;;;;4980541;28;19933;-64
2022/02/26 04:35:29;;;;;;;;;;;13.50;65.90;;;;;;4980509;28;20182;-64
2022/02/26 04:37:55;;;;;;;;;;;13.50;65.90;;;;;;4980476;28;19917;-64
2022/02/26 04:40:20;;;;;;;;;;;13.50;65.90;;;;;;4980400;28;19956;-64
2022/02/26 04:42:46;;;;;;;;;;;13.40;65.90;;;;;;4980421;28;19910;-64
2022/02/26 04:45:12;;;;;;;;;;;13.50;65.90;;;;;;4980137;28;19925;-64
2022/02/26 04:47:39;;;;;;;;;;;13.40;65.80;;;;;;4980282;28;20205;-64
2022/02/26 04:50:05;;;;;;;;;;;13.40;65.90;;;;;;4980327;28;20213;-65
2022/02/26 04:52:30;;;;;;;;;;;13.50;65.90;;;;;;4980191;28;19940;-64
2022/02/26 04:54:57;;;;;;;;;;;13.40;65.80;;;;;;4980202;28;19910;-64
2022/02/26 04:57:22;;;;;;;;;;;13.40;65.90;;;;;;4980072;28;19902;-64
2022/02/26 04:59:48;;;;;;;;;;;13.40;65.90;;;;;;4980142;28;19920;-64
2022/02/26 05:02:14;;;;;;;;;;;13.40;66.00;;;;;;4980008;28;20107;-64
2022/02/26 05:04:39;;;;;;;;;;;13.40;65.80;;;;;;4979978;28;19910;-64
2022/02/26 05:07:05;;;;;;;;;;;13.40;65.80;;;;;;4979920;28;19932;-64
2022/02/26 05:09:30;;;;;;;;;;;13.40;66.00;;;;;;4979964;28;19976;-64
2022/02/26 05:11:56;;;;;;;;;;;13.40;66.00;;;;;;4979934;28;19910;-64
2022/02/26 05:14:21;;;;;;;;;;;13.40;65.90;;;;;;4978653;28;19947;-64
2022/02/26 05:16:47;;;;;;;;;;;13.40;66.00;;;;;;4978971;28;19902;-64
2022/02/26 05:19:13;;;;;;;;;;;13.40;65.90;;;;;;4979811;28;19937;-64
2022/02/26 05:21:38;;;;;;;;;;;13.40;66.00;;;;;;4979637;28;19909;-63
2022/02/26 05:24:04;;;;;;;;;;;13.40;66.00;;;;;;4979741;28;19902;-64
2022/02/26 05:26:30;;;;;;;;;;;13.40;66.00;;;;;;4979594;28;19913;-63
2022/02/26 05:28:55;;;;;;;;;;;13.40;66.00;;;;;;4980179;28;19910;-63
2022/02/26 05:31:21;;;;;;;;;;;13.40;66.00;;;;;;4979557;28;19917;-63
2022/02/26 05:33:46;;;;;;;;;;;13.40;66.00;;;;;;4979534;28;19917;-64
2022/02/26 05:36:12;;;;;;;;;;;13.30;66.00;;;;;;4979514;28;20214;-64
2022/02/26 05:38:38;;;;;;;;;;;13.30;66.10;;;;;;4979451;28;19910;-63
2022/02/26 05:41:05;;;;;;;;;;;13.30;65.90;;;;;;4979397;28;19910;-64
2022/02/26 05:43:30;;;;;;;;;;;13.30;65.90;;;;;;4979335;28;19978;-63
2022/02/26 05:45:56;;;;;;;;;;;13.30;65.90;;;;;;4979138;28;19922;-63
2022/02/26 05:48:21;;;;;;;;;;;13.30;65.90;;;;;;4979170;28;20202;-63
2022/02/26 05:50:47;;;;;;;;;;;13.40;66.00;;;;;;4979305;28;19902;-64
2022/02/26 05:53:13;;;;;;;;;;;13.40;66.00;;;;;;4979262;28;20462;-64
2022/02/26 05:55:38;;;;;;;;;;;13.30;65.90;;;;;;4979202;28;19917;-63
2022/02/26 05:58:04;;;;;;;;;;;13.30;65.90;;;;;;4979159;28;19903;-64
2022/02/26 06:00:29;;;;;;;;;;;13.30;65.90;;;;;;4979120;28;19902;-63
2022/02/26 06:02:55;;;;;;;;;;;13.30;65.90;;;;;;4979095;28;20199;-63
2022/02/26 06:05:21;;;;;;;;;;;13.30;65.90;;;;;;4979022;28;19975;-63
2022/02/26 06:07:46;;;;;;;;;;;13.30;65.90;;;;;;4978963;28;19914;-64
2022/02/26 06:10:12;;;;;;;;;;;13.30;65.90;;;;;;4979433;28;20238;-63
2022/02/26 06:12:37;;;;;;;;;;;13.40;65.90;;;;;;4979116;28;19910;-63
2022/02/26 06:15:04;;;;;;;;;;;13.30;65.90;;;;;;4978923;28;19993;-64
2022/02/26 06:17:30;;;;;;;;;;;13.30;65.90;;;;;;4978794;28;19906;-64
2022/02/26 06:19:55;;;;;;;;;;;13.40;65.90;;;;;;4978857;28;20398;-63
2022/02/26 06:22:21;;;;;;;;;;;13.30;65.80;;;;;;4978721;28;19910;-64
2022/02/26 06:24:47;;;;;;;;;;;13.40;65.80;;;;;;4978746;28;20244;-63
2022/02/26 06:27:12;;;;;;;;;;;13.40;65.90;;;;;;4978601;28;19913;-64
2022/02/26 06:29:38;;;;;;;;;;;13.40;65.60;;;;;;4978648;28;20122;-64
2022/02/26 06:32:05;;;;;;;;;;;13.40;65.70;;;;;;4978708;28;20292;-63
2022/02/26 06:34:31;;;;;;;;;;;13.40;65.80;;;;;;4978526;28;20000;-64
2022/02/26 06:36:57;;;;;;;;;;;13.30;65.70;;;;;;4978601;28;19914;-63
2022/02/26 06:39:23;;;;;;;;;;;13.30;65.90;;;;;;4978497;28;19924;-64
2022/02/26 06:41:49;;;;;;;;;;;13.40;65.80;;;;;;4978457;28;19913;-64
2022/02/26 06:44:15;;;;;;;;;;;13.40;65.60;;;;;;4978478;28;20075;-64
2022/02/26 06:46:41;;;;;;;;;;;13.40;65.70;;;;;;4978098;28;19963;-64
2022/02/26 06:49:07;;;;;;;;;;;13.40;65.50;;;;;;4978384;28;19910;-65
2022/02/26 06:51:33;;;;;;;;;;;13.40;65.50;;;;;;4978358;28;20106;-63
2022/02/26 06:53:59;;;;;;;;;;;13.40;65.50;;;;;;4978243;28;19982;-64
2022/02/26 06:56:25;;;;;;;;;;;13.40;65.50;;;;;;4978306;28;19973;-64
2022/02/26 06:58:51;;;;;;;;;;;13.40;65.50;;;;;;4978170;28;19909;-64
2022/02/26 07:01:16;;;;;;;;;;;13.50;65.40;;;;;;4978217;28;19910;-64
2022/02/26 07:03:42;;;;;;;;;;;13.40;65.30;;;;;;4978174;28;19987;-64
2022/02/26 07:06:08;;;;;;;;;;;13.50;65.30;;;;;;4978088;28;20205;-64
2022/02/26 07:08:33;;;;;;;;;;;13.50;65.30;;;;;;4978170;28;19910;-64
2022/02/26 07:11:00;;;;;;;;;;;13.50;65.20;;;;;;4978054;28;19909;-64
2022/02/26 07:13:25;;;;;;;;;;;13.50;65.20;;;;;;4978069;28;19917;-64
2022/02/26 07:15:51;;;;;;;;;;;13.50;65.20;;;;;;4977941;28;20197;-64
2022/02/26 07:18:17;;;;;;;;;;;13.50;65.10;;;;;;4978021;28;19918;-64
2022/02/26 07:20:42;;;;;;;;;;;13.50;65.00;;;;;;4977898;28;19902;-64
2022/02/26 07:23:08;;;;;;;;;;;13.50;65.00;;;;;;4977910;28;19910;-64
2022/02/26 07:25:33;;;;;;;;;;;13.50;65.10;;;;;;4977933;28;19968;-64
2022/02/26 07:27:59;;;;;;;;;;;13.60;65.00;;;;;;4977809;28;19906;-64
2022/02/26 07:30:25;;;;;;;;;;;13.50;65.00;;;;;;4977788;28;19905;-64
2022/02/26 07:32:51;;;;;;;;;;;13.60;64.90;;;;;;4977883;28;19973;-64
2022/02/26 07:35:17;;;;;;;;;;;13.60;64.80;;;;;;4977806;28;19910;-64
2022/02/26 07:37:43;;;;;;;;;;;13.60;64.90;;;;;;4977709;28;19933;-65
2022/02/26 07:40:12;;;;;;;;;;;13.70;64.80;;;;;;4979889;28;19942;-64
2022/02/26 07:42:37;;;;;;;;;;;13.70;64.50;;;;;;4980986;28;20240;-64
2022/02/26 07:45:04;;;;;;;;;;;13.90;64.30;;;;;;4981141;28;19910;-65
2022/02/26 07:47:30;;;;;;;;;;;13.90;63.90;;;;;;4980824;28;20004;-64
2022/02/26 07:49:56;;;;;;;;;;;14.00;63.60;;;;;;4981085;28;19910;-64
2022/02/26 07:52:21;;;;;;;;;;;14.20;63.20;;;;;;4980987;28;19917;-64
2022/02/26 07:54:47;;;;;;;;;;;14.30;62.80;;;;;;4979941;28;20237;-64
2022/02/26 07:57:12;;;;;;;;;;;14.50;62.30;;;;;;4980888;28;20032;-64
2022/02/26 07:59:38;;;;;;;;;;;14.60;61.70;;;;;;4980935;28;19917;-65
2022/02/26 08:02:04;;;;;;;;;;;14.70;61.30;;;;;;4980870;28;19910;-64
2022/02/26 08:04:29;;;;;;;;;;;14.90;60.80;;;;;;4980826;28;19906;-64
2022/02/26 08:06:55;;;;;;;;;;;15.10;61.00;;;;;;4980657;28;20222;-64
2022/02/26 08:09:20;;;;;;;;;;;15.20;59.80;;;;;;4980734;28;19910;-64
2022/02/26 08:11:46;;;;;;;;;;;15.30;59.30;;;;;;4980728;28;20179;-64
2022/02/26 08:14:12;;;;;;;;;;;15.40;59.10;;;;;;4980626;28;19977;-65
2022/02/26 08:16:37;;;;;;;;;;;15.70;58.40;;;;;;4980626;28;19991;-65
2022/02/26 08:19:03;;;;;;;;;;;16.00;57.30;;;;;;4980627;28;19910;-65
2022/02/26 08:21:31;;;;;;;;;;;16.40;56.00;;;;;;4980554;28;20256;-64
2022/02/26 08:23:56;;;;;;;;;;;17.30;54.10;;;;;;4980593;28;20214;-65
2022/02/26 08:26:22;;;;;;;;;;;17.90;52.70;;;;;;4980393;28;19909;-65
2022/02/26 08:28:47;;;;;;;;;;;18.20;51.90;;;;;;4980507;28;19902;-65
2022/02/26 08:31:13;;;;;;;;;;;18.40;51.10;;;;;;4980436;28;19910;-65
2022/02/26 08:33:39;;;;;;;;;;;18.60;50.60;;;;;;4979293;28;20159;-64
2022/02/26 08:36:04;;;;;;;;;;;18.70;50.20;;;;;;4980376;28;19909;-65
2022/02/26 08:38:30;;;;;;;;;;;18.80;49.80;;;;;;4979096;28;19909;-65
2022/02/26 08:40:56;;;;;;;;;;;18.70;50.00;;;;;;4980319;28;20118;-64
2022/02/26 08:43:21;;;;;;;;;;;18.90;49.50;;;;;;4980284;28;20360;-65
2022/02/26 08:45:47;;;;;;;;;;;18.80;49.50;;;;;;4980062;28;19914;-65
2022/02/26 08:48:13;;;;;;;;;;;18.70;50.20;;;;;;4980153;28;20267;-65
2022/02/26 08:50:38;;;;;;;;;;;18.70;49.90;;;;;;4978967;28;19910;-64
2022/02/26 08:53:04;;;;;;;;;;;17.90;51.20;;;;;;4980078;28;19981;-64
2022/02/26 08:55:30;;;;;;;;;;;17.10;53.50;;;;;;4980035;28;19902;-65
2022/02/26 08:57:56;;;;;;;;;;;16.50;55.20;;;;;;4980061;28;19913;-64
2022/02/26 09:00:21;;;;;;;;;;;16.20;56.20;;;;;;4980005;28;19916;-64
2022/02/26 09:02:47;;;;;;;;;;;16.00;57.00;;;;;;4979956;28;19910;-64
2022/02/26 09:05:13;;;;;;;;;;;15.80;57.80;;;;;;4979894;28;19902;-64
2022/02/26 09:07:38;;;;;;;;;;;15.70;58.30;;;;;;4979811;28;19921;-64
2022/02/26 09:10:05;;;;;;;;;;;15.50;58.70;;;;;;4979843;28;19910;-65
2022/02/26 09:12:30;;;;;;;;;;;15.40;59.10;;;;;;4979805;28;19910;-64
2022/02/26 09:14:56;;;;;;;;;;;15.40;59.20;;;;;;4979760;28;20232;-64
2022/02/26 09:17:22;;;;;;;;;;;15.30;59.30;;;;;;4979679;28;20198;-64
2022/02/26 09:19:47;;;;;;;;;;;15.30;59.60;;;;;;4979680;28;19944;-65
2022/02/26 09:22:13;;;;;;;;;;;15.20;59.80;;;;;;4979676;28;19910;-64
2022/02/26 09:24:39;;;;;;;;;;;15.20;59.90;;;;;;4979642;28;20141;-64
2022/02/26 09:27:05;;;;;;;;;;;15.20;60.20;;;;;;4979548;28;19906;-64
2022/02/26 09:29:31;;;;;;;;;;;15.10;60.20;;;;;;4979571;28;19941;-65
2022/02/26 09:31:56;;;;;;;;;;;15.10;60.40;;;;;;4979516;28;19910;-64
2022/02/26 09:34:23;;;;;;;;;;;15.10;60.30;;;;;;4979382;28;20186;-65
2022/02/26 09:36:50;;;;;;;;;;;15.10;60.30;;;;;;4979446;28;19910;-65
2022/02/26 09:39:17;;;;;;;;;;;15.10;60.40;;;;;;4979403;28;20008;-64
2022/02/26 09:41:43;;;;;;;;;;;15.10;60.60;;;;;;4979342;28;19902;-64
2022/02/26 09:44:09;;;;;;;;;;;15.10;60.70;;;;;;4979281;28;19910;-64
2022/02/26 09:46:35;;;;;;;;;;;15.10;60.50;;;;;;4979107;28;19981;-65
2022/02/26 09:49:01;;;;;;;;;;;15.10;60.60;;;;;;4979243;28;19945;-64
2022/02/26 09:51:27;;;;;;;;;;;15.10;60.70;;;;;;4979249;28;19919;-65
2022/02/26 09:53:53;;;;;;;;;;;15.10;60.70;;;;;;4979128;28;19922;-64
2022/02/26 09:56:20;;;;;;;;;;;15.10;60.80;;;;;;4979149;28;19947;-65
2022/02/26 09:58:45;;;;;;;;;;;15.10;60.80;;;;;;4979133;28;20009;-64
2022/02/26 10:01:11;;;;;;;;;;;15.10;60.70;;;;;;4979040;28;19914;-64
2022/02/26 10:03:37;;;;;;;;;;;15.10;60.60;;;;;;4978791;28;19916;-65
2022/02/26 10:06:03;;;;;;;;;;;15.10;60.50;;;;;;4978971;28;19902;-64
2022/02/26 10:08:34;;;;;;;;;;;15.10;60.70;;;;;;4978899;28;19921;-64
2022/02/26 10:10:59;;;;;;;;;;;15.20;60.70;;;;;;4978891;28;20130;-64
2022/02/26 10:13:25;;;;;;;;;;;15.20;60.90;;;;;;4978873;28;19910;-64
2022/02/26 10:15:51;;;;;;;;;;;15.10;61.10;;;;;;4978819;28;20001;-65
2022/02/26 10:18:17;;;;;;;;;;;15.10;60.90;;;;;;4978828;28;20230;-65
2022/02/26 10:20:47;;;;;;;;;;;15.10;61.10;;;;;;4978802;28;19941;-64
2022/02/26 10:23:16;;;;;;;;;;;15.20;61.10;;;;;;4978688;28;20205;-64
2022/02/26 10:25:41;;;;;;;;;;;15.10;61.00;;;;;;4978674;28;19910;-65
2022/02/26 10:28:10;;;;;;;;;;;15.10;61.10;;;;;;4978645;28;20015;-64
2022/02/26 10:30:37;;;;;;;;;;;15.10;61.20;;;;;;4978713;28;19910;-65
2022/02/26 10:33:07;;;;;;;;;;;15.10;61.30;;;;;;4978569;28;20195;-64
2022/02/26 10:35:34;;;;;;;;;;;15.10;61.30;;;;;;4977195;28;19902;-64
2022/02/26 10:38:18;;;;;;;;;;;15.00;61.50;;;;;;4978510;28;19902;-64
2022/02/26 10:40:44;;;;;;;;;;;15.00;61.60;;;;;;4977247;28;19918;-64
2022/02/26 10:43:10;;;;;;;;;;;15.00;61.90;;;;;;4978428;28;20534;-64
2022/02/26 10:45:35;;;;;;;;;;;15.00;62.10;;;;;;4978289;28;19918;-64
2022/02/26 10:48:01;;;;;;;;;;;15.00;62.10;;;;;;4978373;28;20229;-64
2022/02/26 10:50:27;;;;;;;;;;;15.00;62.10;;;;;;4978374;28;19917;-64
2022/02/26 10:52:57;;;;;;;;;;;15.00;62.30;;;;;;4978297;28;20141;-64
2022/02/26 10:55:22;;;;;;;;;;;15.00;62.30;;;;;;4978236;28;19924;-63
2022/02/26 10:57:55;;;;;;;;;;;14.90;62.40;;;;;;4978224;28;20405;-64
2022/02/26 11:00:23;;;;;;;;;;;15.00;62.30;;;;;;4978237;28;20004;-64
2022/02/26 11:03:06;;;;;;;;;;;15.00;62.50;;;;;;4976963;28;20092;-64
2022/02/26 11:05:32;;;;;;;;;;;15.00;62.40;;;;;;4978171;28;19910;-64
2022/02/26 11:07:57;;;;;;;;;;;15.00;62.50;;;;;;4978116;28;19985;-65
2022/02/26 11:10:23;;;;;;;;;;;15.00;62.60;;;;;;4978104;28;19989;-65
2022/02/26 11:12:49;;;;;;;;;;;15.00;62.60;;;;;;4978050;28;19910;-64
2022/02/26 11:15:14;;;;;;;;;;;15.00;62.60;;;;;;4977276;28;19906;-64
2022/02/26 11:17:40;;;;;;;;;;;15.00;62.80;;;;;;4977999;28;19910;-64
2022/02/26 11:20:09;;;;;;;;;;;14.90;62.80;;;;;;4977983;28;19920;-64
2022/02/26 11:22:35;;;;;;;;;;;15.00;62.90;;;;;;4977986;28;19934;-64
2022/02/26 11:25:01;;;;;;;;;;;15.00;62.80;;;;;;4977922;28;19909;-65
2022/02/26 11:27:27;;;;;;;;;;;15.00;63.50;;;;;;4977913;28;19936;-64
2022/02/26 11:29:53;;;;;;;;;;;15.00;62.90;;;;;;4977881;28;19954;-65
2022/02/26 11:32:20;;;;;;;;;;;15.00;62.90;;;;;;4977815;28;19968;-65
2022/02/26 11:34:47;;;;;;;;;;;15.00;63.00;;;;;;4978046;28;19926;-64
2022/02/26 11:37:14;;;;;;;;;;;15.00;63.10;;;;;;4977812;28;19902;-64
2022/02/26 11:39:42;;;;;;;;;;;15.00;63.00;;;;;;4977762;28;19961;-64
2022/02/26 11:42:13;;;;;;;;;;;15.00;63.10;;;;;;4977947;28;19909;-64
2022/02/26 11:44:43;;;;;;;;;;;15.00;63.00;;;;;;4977726;28;20170;-64
2022/02/26 11:47:16;;;;;;;;;;;15.00;63.10;;;;;;4977439;28;19921;-65
2022/02/26 11:50:03;;;;;;;;;;;15.00;63.10;;;;;;4977642;28;20206;-64
2022/02/26 11:52:41;;;;;;;;;;;15.00;63.10;;;;;;4977592;28;19929;-64
2022/02/26 11:55:19;;;;;;;;;;;15.00;63.10;;;;;;4977593;28;19917;-64
2022/02/26 11:57:45;;;;;;;;;;;15.00;63.10;;;;;;4976448;28;19906;-64
2022/02/26 12:00:11;;;;;;;;;;;15.00;63.10;;;;;;4977457;28;19910;-64
2022/02/26 12:02:37;;;;;;;;;;;15.10;63.00;;;;;;4977724;28;19946;-64
2022/02/26 12:05:03;;;;;;;;;;;15.10;63.10;;;;;;4977404;28;20099;-65
2022/02/26 12:07:29;;;;;;;;;;;15.20;63.00;;;;;;4977294;28;20099;-65
2022/02/26 12:09:59;;;;;;;;;;;15.20;63.00;;;;;;4977406;28;19941;-64
2022/02/26 12:13:00;;;;;;;;;;;15.20;62.90;;;;;;4977418;28;19925;-63
2022/02/26 12:15:29;;;;;;;;;;;15.20;63.00;;;;;;5036752;28;19913;-64
2022/02/26 12:17:54;;;;;;;;;;;15.20;63.10;;;;;;4988389;28;19902;-64
2022/02/26 12:20:21;;;;;;;;;;;15.20;63.10;;;;;;4977294;28;20125;-64
2022/02/26 12:22:48;;;;;;;;;;;15.20;63.10;;;;;;4977334;28;20086;-64
2022/02/26 12:25:15;;;;;;;;;;;15.10;63.10;;;;;;4978072;28;20254;-64
2022/02/26 12:27:41;;;;;;;;;;;15.10;63.10;;;;;;4980460;28;19914;-65
2022/02/26 12:30:11;;;;;;;;;;;15.20;63.20;;;;;;4980559;28;19956;-64
2022/02/26 12:32:57;;;;;;;;;;;15.10;63.20;;;;;;4980410;28;19917;-64
2022/02/26 12:35:33;;;;;;;;;;;15.10;63.20;;;;;;4980444;28;20237;-64
2022/02/26 12:38:00;;;;;;;;;;;15.10;63.20;;;;;;4980341;28;19910;-64
2022/02/26 12:40:28;;;;;;;;;;;15.10;63.30;;;;;;4980362;28;19910;-64
2022/02/26 12:43:00;;;;;;;;;;;15.10;63.20;;;;;;4980298;28;20206;-64
2022/02/26 12:45:26;;;;;;;;;;;15.10;63.20;;;;;;4980113;28;20201;-65
2022/02/26 12:47:52;;;;;;;;;;;15.10;63.20;;;;;;4980163;28;19939;-64
2022/02/26 12:50:18;;;;;;;;;;;15.10;63.20;;;;;;4980211;28;19973;-64
2022/02/26 12:52:44;;;;;;;;;;;15.10;63.30;;;;;;4980185;28;19917;-64
2022/02/26 12:55:11;;;;;;;;;;;15.10;63.30;;;;;;4980048;28;19902;-64
2022/02/26 12:57:38;;;;;;;;;;;15.10;63.30;;;;;;4980065;28;20129;-64
2022/02/26 13:00:04;;;;;;;;;;;15.10;63.20;;;;;;4980008;28;19952;-64
2022/02/26 13:02:31;;;;;;;;;;;15.10;63.20;;;;;;4979975;28;19910;-65
2022/02/26 13:05:00;;;;;;;;;;;15.20;63.10;;;;;;4979971;28;19917;-65
2022/02/26 13:07:27;;;;;;;;;;;15.20;63.10;;;;;;4979923;28;20607;-64
2022/02/26 13:09:53;;;;;;;;;;;15.20;63.10;;;;;;4979923;28;19902;-65
2022/02/26 13:12:29;;;;;;;;;;;15.20;63.10;;;;;;4979790;28;19910;-64
2022/02/26 13:15:04;;;;;;;;;;;15.20;63.10;;;;;;4979814;28;20101;-64
2022/02/26 13:17:34;;;;;;;;;;;15.10;63.10;;;;;;4979734;28;19909;-65
2022/02/26 13:20:01;;;;;;;;;;;15.10;63.10;;;;;;4979750;28;19955;-64
2022/02/26 13:22:27;;;;;;;;;;;15.10;63.20;;;;;;4979709;28;20130;-63
2022/02/26 13:24:52;;;;;;;;;;;15.10;63.20;;;;;;4979609;28;20191;-65
2022/02/26 13:27:20;;;;;;;;;;;15.10;63.20;;;;;;4979488;28;19921;-64
2022/02/26 13:29:48;;;;;;;;;;;15.10;63.20;;;;;;4979608;28;19929;-65
2022/02/26 13:32:23;;;;;;;;;;;15.10;63.20;;;;;;4979538;28;20320;-64
2022/02/26 13:34:50;;;;;;;;;;;15.10;63.20;;;;;;4979486;28;20007;-65
2022/02/26 13:37:16;;;;;;;;;;;15.10;63.20;;;;;;4978824;28;19945;-66
2022/02/26 13:39:43;;;;;;;;;;;15.10;63.20;;;;;;4979337;28;19909;-65
2022/02/26 13:42:08;;;;;;;;;;;15.10;63.20;;;;;;4979412;28;19977;-65
2022/02/26 13:44:36;;;;;;;;;;;15.10;63.20;;;;;;4979397;28;20102;-65
2022/02/26 13:47:11;;;;;;;;;;;15.10;63.20;;;;;;4979106;28;19926;-65
2022/02/26 13:49:42;;;;;;;;;;;15.10;63.20;;;;;;4979291;28;19940;-65
2022/02/26 13:52:10;;;;;;;;;;;15.10;63.20;;;;;;4979297;28;19972;-64
2022/02/26 13:54:39;;;;;;;;;;;15.10;63.20;;;;;;4979228;28;19973;-65
2022/02/26 13:57:09;;;;;;;;;;;15.10;63.20;;;;;;4979144;28;19902;-65
2022/02/26 13:59:35;;;;;;;;;;;15.10;63.20;;;;;;4979210;28;19905;-64
2022/02/26 14:02:00;;;;;;;;;;;15.10;63.20;;;;;;4979121;28;20109;-65
2022/02/26 14:04:26;;;;;;;;;;;15.10;63.10;;;;;;4979037;28;19910;-64
2022/02/26 14:06:53;;;;;;;;;;;15.20;63.10;;;;;;4978973;28;19945;-64
2022/02/26 14:09:18;;;;;;;;;;;15.20;63.10;;;;;;4978948;28;20111;-66
2022/02/26 14:11:49;;;;;;;;;;;15.20;62.90;;;;;;4978940;28;19910;-64
2022/02/26 14:14:29;;;;;;;;;;;15.20;62.90;;;;;;4979000;28;19906;-64